sensor_id;sensor_type;location;lat;lon;timestamp;P1;durP1;ratioP1;P2;durP2;ratioP2
74626;SDS011;63132;52.268;5.192;2024-02-26T00:01:40;7.13;;;5.10;;
74626;SDS011;63132;52.268;5.192;2024-02-26T00:04:06;7.75;;;5.30;;
74626;SDS011;63132;52.268;5.192;2024-02-26T00:06:31;7.90;;;5.05;;
74626;SDS011;63132;52.268;5.192;2024-02-26T00:08:57;11.05;;;4.85;;
74626;SDS011;63132;52.268;5.192;2024-02-26T00:11:22;8.43;;;5.25;;
74626;SDS011;63132;52.268;5.192;2024-02-26T00:13:48;8.77;;;5.10;;
74626;SDS011;63132;52.268;5.192;2024-02-26T00:16:13;9.07;;;5.33;;
74626;SDS011;63132;52.268;5.192;2024-02-26T00:18:38;11.20;;;6.07;;
74626;SDS011;63132;52.268;5.192;2024-02-26T00:21:04;8.20;;;5.13;;
74626;SDS011;63132;52.268;5.192;2024-02-26T00:23:29;8.43;;;5.90;;
74626;SDS011;63132;52.268;5.192;2024-02-26T00:25:55;9.80;;;5.80;;
74626;SDS011;63132;52.268;5.192;2024-02-26T00:28:20;8.10;;;6.10;;
74626;SDS011;63132;52.268;5.192;2024-02-26T00:33:12;11.38;;;6.35;;
74626;SDS011;63132;52.268;5.192;2024-02-26T00:35:39;9.52;;;6.38;;
74626;SDS011;63132;52.268;5.192;2024-02-26T00:38:04;8.77;;;6.00;;
74626;SDS011;63132;52.268;5.192;2024-02-26T00:40:30;12.97;;;7.00;;
74626;SDS011;63132;52.268;5.192;2024-02-26T00:42:55;12.33;;;6.77;;
74626;SDS011;63132;52.268;5.192;2024-02-26T00:45:20;14.10;;;7.40;;
74626;SDS011;63132;52.268;5.192;2024-02-26T00:47:46;12.20;;;7.47;;
74626;SDS011;63132;52.268;5.192;2024-02-26T00:50:12;12.82;;;7.63;;
74626;SDS011;63132;52.268;5.192;2024-02-26T00:52:38;11.30;;;7.97;;
74626;SDS011;63132;52.268;5.192;2024-02-26T00:55:03;12.83;;;7.43;;
74626;SDS011;63132;52.268;5.192;2024-02-26T00:57:29;13.40;;;8.20;;
74626;SDS011;63132;52.268;5.192;2024-02-26T00:59:54;12.90;;;8.50;;
74626;SDS011;63132;52.268;5.192;2024-02-26T01:02:21;13.25;;;8.00;;
74626;SDS011;63132;52.268;5.192;2024-02-26T01:04:47;15.32;;;8.35;;
74626;SDS011;63132;52.268;5.192;2024-02-26T01:07:12;12.65;;;8.77;;
74626;SDS011;63132;52.268;5.192;2024-02-26T01:09:38;12.90;;;8.57;;
74626;SDS011;63132;52.268;5.192;2024-02-26T01:12:03;15.10;;;8.10;;
74626;SDS011;63132;52.268;5.192;2024-02-26T01:14:29;14.75;;;8.63;;
74626;SDS011;63132;52.268;5.192;2024-02-26T01:16:54;14.93;;;8.50;;
74626;SDS011;63132;52.268;5.192;2024-02-26T01:19:19;14.47;;;8.83;;
74626;SDS011;63132;52.268;5.192;2024-02-26T01:21:44;15.47;;;8.73;;
74626;SDS011;63132;52.268;5.192;2024-02-26T01:24:10;14.20;;;9.20;;
74626;SDS011;63132;52.268;5.192;2024-02-26T01:26:35;14.05;;;8.55;;
74626;SDS011;63132;52.268;5.192;2024-02-26T01:29:01;20.23;;;10.40;;
74626;SDS011;63132;52.268;5.192;2024-02-26T01:31:26;16.60;;;9.17;;
74626;SDS011;63132;52.268;5.192;2024-02-26T01:33:51;15.37;;;9.77;;
74626;SDS011;63132;52.268;5.192;2024-02-26T01:36:17;16.67;;;10.10;;
74626;SDS011;63132;52.268;5.192;2024-02-26T01:38:42;17.27;;;9.60;;
74626;SDS011;63132;52.268;5.192;2024-02-26T01:41:08;16.10;;;10.17;;
74626;SDS011;63132;52.268;5.192;2024-02-26T01:43:33;15.60;;;10.03;;
74626;SDS011;63132;52.268;5.192;2024-02-26T01:45:58;17.17;;;10.57;;
74626;SDS011;63132;52.268;5.192;2024-02-26T01:48:24;16.25;;;10.07;;
74626;SDS011;63132;52.268;5.192;2024-02-26T01:50:50;18.95;;;10.40;;
74626;SDS011;63132;52.268;5.192;2024-02-26T01:53:16;15.50;;;9.90;;
74626;SDS011;63132;52.268;5.192;2024-02-26T01:55:42;16.45;;;10.27;;
74626;SDS011;63132;52.268;5.192;2024-02-26T01:58:08;17.27;;;9.90;;
74626;SDS011;63132;52.268;5.192;2024-02-26T02:00:34;18.55;;;10.25;;
74626;SDS011;63132;52.268;5.192;2024-02-26T02:02:59;15.18;;;9.95;;
74626;SDS011;63132;52.268;5.192;2024-02-26T02:05:26;15.43;;;10.30;;
74626;SDS011;63132;52.268;5.192;2024-02-26T02:07:51;17.27;;;9.90;;
74626;SDS011;63132;52.268;5.192;2024-02-26T02:10:17;17.73;;;11.25;;
74626;SDS011;63132;52.268;5.192;2024-02-26T02:12:47;15.77;;;9.60;;
74626;SDS011;63132;52.268;5.192;2024-02-26T02:15:13;18.90;;;10.43;;
74626;SDS011;63132;52.268;5.192;2024-02-26T02:17:38;17.02;;;10.40;;
74626;SDS011;63132;52.268;5.192;2024-02-26T02:20:07;15.93;;;9.85;;
74626;SDS011;63132;52.268;5.192;2024-02-26T02:22:33;18.50;;;9.68;;
74626;SDS011;63132;52.268;5.192;2024-02-26T02:24:59;15.77;;;9.13;;
74626;SDS011;63132;52.268;5.192;2024-02-26T02:27:24;17.88;;;10.32;;
74626;SDS011;63132;52.268;5.192;2024-02-26T02:29:51;19.25;;;10.23;;
74626;SDS011;63132;52.268;5.192;2024-02-26T02:32:16;17.70;;;10.40;;
74626;SDS011;63132;52.268;5.192;2024-02-26T02:34:42;22.05;;;10.55;;
74626;SDS011;63132;52.268;5.192;2024-02-26T02:37:08;17.45;;;10.95;;
74626;SDS011;63132;52.268;5.192;2024-02-26T02:39:33;16.23;;;9.40;;
74626;SDS011;63132;52.268;5.192;2024-02-26T02:41:58;19.70;;;10.20;;
74626;SDS011;63132;52.268;5.192;2024-02-26T02:44:24;18.57;;;10.33;;
74626;SDS011;63132;52.268;5.192;2024-02-26T02:46:49;21.07;;;10.37;;
74626;SDS011;63132;52.268;5.192;2024-02-26T02:49:17;16.70;;;10.32;;
74626;SDS011;63132;52.268;5.192;2024-02-26T02:51:42;17.97;;;10.67;;
74626;SDS011;63132;52.268;5.192;2024-02-26T02:54:07;18.30;;;9.90;;
74626;SDS011;63132;52.268;5.192;2024-02-26T02:56:33;16.70;;;9.87;;
74626;SDS011;63132;52.268;5.192;2024-02-26T02:58:58;17.90;;;10.38;;
74626;SDS011;63132;52.268;5.192;2024-02-26T03:01:23;17.33;;;10.43;;
74626;SDS011;63132;52.268;5.192;2024-02-26T03:03:49;18.47;;;11.47;;
74626;SDS011;63132;52.268;5.192;2024-02-26T03:06:14;17.67;;;10.83;;
74626;SDS011;63132;52.268;5.192;2024-02-26T03:08:39;21.80;;;11.37;;
74626;SDS011;63132;52.268;5.192;2024-02-26T03:11:06;16.40;;;10.07;;
74626;SDS011;63132;52.268;5.192;2024-02-26T03:13:31;16.40;;;10.33;;
74626;SDS011;63132;52.268;5.192;2024-02-26T03:15:57;19.97;;;10.43;;
74626;SDS011;63132;52.268;5.192;2024-02-26T03:18:22;20.83;;;10.73;;
74626;SDS011;63132;52.268;5.192;2024-02-26T03:20:48;18.95;;;10.93;;
74626;SDS011;63132;52.268;5.192;2024-02-26T03:25:44;17.80;;;10.15;;
74626;SDS011;63132;52.268;5.192;2024-02-26T03:28:11;18.70;;;10.65;;
74626;SDS011;63132;52.268;5.192;2024-02-26T03:30:37;17.27;;;10.35;;
74626;SDS011;63132;52.268;5.192;2024-02-26T03:33:03;18.60;;;10.57;;
74626;SDS011;63132;52.268;5.192;2024-02-26T03:35:28;21.07;;;11.60;;
74626;SDS011;63132;52.268;5.192;2024-02-26T03:37:53;19.17;;;11.13;;
74626;SDS011;63132;52.268;5.192;2024-02-26T03:40:19;21.20;;;11.70;;
74626;SDS011;63132;52.268;5.192;2024-02-26T03:42:44;21.65;;;11.25;;
74626;SDS011;63132;52.268;5.192;2024-02-26T03:45:10;20.75;;;11.40;;
74626;SDS011;63132;52.268;5.192;2024-02-26T03:47:37;19.40;;;11.13;;
74626;SDS011;63132;52.268;5.192;2024-02-26T03:50:03;19.08;;;11.60;;
74626;SDS011;63132;52.268;5.192;2024-02-26T03:52:29;17.60;;;10.57;;
74626;SDS011;63132;52.268;5.192;2024-02-26T03:54:55;19.93;;;10.50;;
74626;SDS011;63132;52.268;5.192;2024-02-26T03:57:20;18.70;;;10.47;;
74626;SDS011;63132;52.268;5.192;2024-02-26T03:59:45;18.73;;;10.43;;
74626;SDS011;63132;52.268;5.192;2024-02-26T04:02:11;18.37;;;10.80;;
74626;SDS011;63132;52.268;5.192;2024-02-26T04:04:36;19.53;;;11.07;;
74626;SDS011;63132;52.268;5.192;2024-02-26T04:07:02;18.25;;;11.32;;
74626;SDS011;63132;52.268;5.192;2024-02-26T04:09:27;18.98;;;11.13;;
74626;SDS011;63132;52.268;5.192;2024-02-26T04:11:53;18.63;;;9.97;;
74626;SDS011;63132;52.268;5.192;2024-02-26T04:14:18;18.57;;;10.93;;
74626;SDS011;63132;52.268;5.192;2024-02-26T04:16:43;17.63;;;10.23;;
74626;SDS011;63132;52.268;5.192;2024-02-26T04:19:09;19.93;;;11.40;;
74626;SDS011;63132;52.268;5.192;2024-02-26T04:21:34;17.83;;;10.17;;
74626;SDS011;63132;52.268;5.192;2024-02-26T04:24:00;19.35;;;10.32;;
74626;SDS011;63132;52.268;5.192;2024-02-26T04:26:27;18.42;;;10.20;;
74626;SDS011;63132;52.268;5.192;2024-02-26T04:28:53;17.35;;;10.25;;
74626;SDS011;63132;52.268;5.192;2024-02-26T04:31:19;20.67;;;10.27;;
74626;SDS011;63132;52.268;5.192;2024-02-26T04:33:44;17.87;;;9.60;;
74626;SDS011;63132;52.268;5.192;2024-02-26T04:36:13;15.30;;;9.63;;
74626;SDS011;63132;52.268;5.192;2024-02-26T04:38:41;20.08;;;10.73;;
74626;SDS011;63132;52.268;5.192;2024-02-26T04:41:06;16.70;;;10.07;;
74626;SDS011;63132;52.268;5.192;2024-02-26T04:43:31;18.60;;;10.47;;
74626;SDS011;63132;52.268;5.192;2024-02-26T04:45:56;20.23;;;10.23;;
74626;SDS011;63132;52.268;5.192;2024-02-26T04:48:22;17.63;;;10.10;;
74626;SDS011;63132;52.268;5.192;2024-02-26T04:50:48;18.40;;;10.20;;
74626;SDS011;63132;52.268;5.192;2024-02-26T04:53:13;18.73;;;10.83;;
74626;SDS011;63132;52.268;5.192;2024-02-26T04:55:38;19.33;;;9.93;;
74626;SDS011;63132;52.268;5.192;2024-02-26T04:58:04;19.90;;;11.40;;
74626;SDS011;63132;52.268;5.192;2024-02-26T05:00:29;18.10;;;10.37;;
74626;SDS011;63132;52.268;5.192;2024-02-26T05:02:54;21.90;;;11.83;;
74626;SDS011;63132;52.268;5.192;2024-02-26T05:05:19;20.03;;;10.37;;
74626;SDS011;63132;52.268;5.192;2024-02-26T05:07:45;20.83;;;11.07;;
74626;SDS011;63132;52.268;5.192;2024-02-26T05:10:10;20.10;;;10.67;;
74626;SDS011;63132;52.268;5.192;2024-02-26T05:12:36;19.23;;;10.75;;
74626;SDS011;63132;52.268;5.192;2024-02-26T05:15:01;22.92;;;11.93;;
74626;SDS011;63132;52.268;5.192;2024-02-26T05:17:27;25.17;;;12.30;;
74626;SDS011;63132;52.268;5.192;2024-02-26T05:19:53;23.15;;;12.13;;
74626;SDS011;63132;52.268;5.192;2024-02-26T05:22:18;25.20;;;13.18;;
74626;SDS011;63132;52.268;5.192;2024-02-26T05:24:43;23.10;;;13.07;;
74626;SDS011;63132;52.268;5.192;2024-02-26T05:27:09;26.20;;;14.20;;
74626;SDS011;63132;52.268;5.192;2024-02-26T05:29:34;25.25;;;13.35;;
74626;SDS011;63132;52.268;5.192;2024-02-26T05:32:00;26.27;;;13.10;;
74626;SDS011;63132;52.268;5.192;2024-02-26T05:34:25;30.07;;;14.83;;
74626;SDS011;63132;52.268;5.192;2024-02-26T05:36:50;26.23;;;12.67;;
74626;SDS011;63132;52.268;5.192;2024-02-26T05:39:15;28.23;;;13.97;;
74626;SDS011;63132;52.268;5.192;2024-02-26T05:41:41;27.60;;;13.73;;
74626;SDS011;63132;52.268;5.192;2024-02-26T05:44:08;28.45;;;14.05;;
74626;SDS011;63132;52.268;5.192;2024-02-26T05:46:35;23.73;;;13.43;;
74626;SDS011;63132;52.268;5.192;2024-02-26T05:49:00;29.02;;;13.90;;
74626;SDS011;63132;52.268;5.192;2024-02-26T05:51:26;29.73;;;14.57;;
74626;SDS011;63132;52.268;5.192;2024-02-26T05:53:51;29.63;;;14.90;;
74626;SDS011;63132;52.268;5.192;2024-02-26T05:56:19;31.13;;;15.55;;
74626;SDS011;63132;52.268;5.192;2024-02-26T05:58:45;31.85;;;15.13;;
74626;SDS011;63132;52.268;5.192;2024-02-26T06:01:11;30.03;;;14.70;;
74626;SDS011;63132;52.268;5.192;2024-02-26T06:03:36;31.43;;;15.33;;
74626;SDS011;63132;52.268;5.192;2024-02-26T06:06:01;32.10;;;16.43;;
74626;SDS011;63132;52.268;5.192;2024-02-26T06:08:27;36.83;;;16.50;;
74626;SDS011;63132;52.268;5.192;2024-02-26T06:10:52;33.17;;;15.57;;
74626;SDS011;63132;52.268;5.192;2024-02-26T06:13:17;32.90;;;16.83;;
74626;SDS011;63132;52.268;5.192;2024-02-26T06:15:42;33.83;;;17.23;;
74626;SDS011;63132;52.268;5.192;2024-02-26T06:18:08;33.10;;;16.90;;
74626;SDS011;63132;52.268;5.192;2024-02-26T06:20:33;34.33;;;17.53;;
74626;SDS011;63132;52.268;5.192;2024-02-26T06:22:58;35.80;;;18.50;;
74626;SDS011;63132;52.268;5.192;2024-02-26T06:25:24;35.03;;;18.47;;
74626;SDS011;63132;52.268;5.192;2024-02-26T06:27:50;44.35;;;20.95;;
74626;SDS011;63132;52.268;5.192;2024-02-26T06:30:16;38.37;;;19.10;;
74626;SDS011;63132;52.268;5.192;2024-02-26T06:32:41;40.47;;;21.83;;
74626;SDS011;63132;52.268;5.192;2024-02-26T06:35:06;37.17;;;19.73;;
74626;SDS011;63132;52.268;5.192;2024-02-26T06:37:34;41.30;;;21.00;;
74626;SDS011;63132;52.268;5.192;2024-02-26T06:39:59;41.22;;;21.52;;
74626;SDS011;63132;52.268;5.192;2024-02-26T06:42:25;36.63;;;19.17;;
74626;SDS011;63132;52.268;5.192;2024-02-26T06:44:50;40.63;;;20.52;;
74626;SDS011;63132;52.268;5.192;2024-02-26T06:47:16;39.97;;;21.33;;
74626;SDS011;63132;52.268;5.192;2024-02-26T06:49:41;39.70;;;22.20;;
74626;SDS011;63132;52.268;5.192;2024-02-26T06:52:06;41.75;;;21.65;;
74626;SDS011;63132;52.268;5.192;2024-02-26T06:54:32;36.50;;;19.97;;
74626;SDS011;63132;52.268;5.192;2024-02-26T06:56:57;37.13;;;19.57;;
74626;SDS011;63132;52.268;5.192;2024-02-26T06:59:22;35.80;;;19.13;;
74626;SDS011;63132;52.268;5.192;2024-02-26T07:01:48;37.65;;;19.90;;
74626;SDS011;63132;52.268;5.192;2024-02-26T07:04:14;32.33;;;17.80;;
74626;SDS011;63132;52.268;5.192;2024-02-26T07:06:39;37.17;;;20.30;;
74626;SDS011;63132;52.268;5.192;2024-02-26T07:09:04;35.50;;;19.90;;
74626;SDS011;63132;52.268;5.192;2024-02-26T07:11:30;34.60;;;18.13;;
74626;SDS011;63132;52.268;5.192;2024-02-26T07:13:55;31.53;;;17.03;;
74626;SDS011;63132;52.268;5.192;2024-02-26T07:16:20;30.77;;;16.90;;
74626;SDS011;63132;52.268;5.192;2024-02-26T07:18:46;30.80;;;17.60;;
74626;SDS011;63132;52.268;5.192;2024-02-26T07:21:11;30.20;;;16.00;;
74626;SDS011;63132;52.268;5.192;2024-02-26T07:23:38;32.70;;;16.65;;
74626;SDS011;63132;52.268;5.192;2024-02-26T07:26:03;30.37;;;17.23;;
74626;SDS011;63132;52.268;5.192;2024-02-26T07:28:28;28.65;;;15.15;;
74626;SDS011;63132;52.268;5.192;2024-02-26T07:30:54;31.33;;;15.97;;
74626;SDS011;63132;52.268;5.192;2024-02-26T07:33:19;29.23;;;15.25;;
74626;SDS011;63132;52.268;5.192;2024-02-26T07:35:45;27.83;;;15.87;;
74626;SDS011;63132;52.268;5.192;2024-02-26T07:38:10;26.87;;;14.97;;
74626;SDS011;63132;52.268;5.192;2024-02-26T07:40:36;25.58;;;15.20;;
74626;SDS011;63132;52.268;5.192;2024-02-26T07:43:01;29.13;;;16.00;;
74626;SDS011;63132;52.268;5.192;2024-02-26T07:45:26;24.60;;;14.30;;
74626;SDS011;63132;52.268;5.192;2024-02-26T07:47:52;23.93;;;13.13;;
74626;SDS011;63132;52.268;5.192;2024-02-26T07:50:17;24.00;;;12.93;;
74626;SDS011;63132;52.268;5.192;2024-02-26T07:52:44;20.33;;;11.55;;
74626;SDS011;63132;52.268;5.192;2024-02-26T07:55:10;23.42;;;12.15;;
74626;SDS011;63132;52.268;5.192;2024-02-26T07:57:35;22.10;;;12.05;;
74626;SDS011;63132;52.268;5.192;2024-02-26T08:00:01;20.70;;;11.30;;
74626;SDS011;63132;52.268;5.192;2024-02-26T08:02:28;23.25;;;11.93;;
74626;SDS011;63132;52.268;5.192;2024-02-26T08:04:53;21.57;;;11.03;;
74626;SDS011;63132;52.268;5.192;2024-02-26T08:07:18;20.20;;;10.90;;
74626;SDS011;63132;52.268;5.192;2024-02-26T08:09:45;19.63;;;11.43;;
74626;SDS011;63132;52.268;5.192;2024-02-26T08:12:11;18.52;;;10.57;;
74626;SDS011;63132;52.268;5.192;2024-02-26T08:14:36;21.57;;;10.00;;
74626;SDS011;63132;52.268;5.192;2024-02-26T08:17:01;16.57;;;10.00;;
74626;SDS011;63132;52.268;5.192;2024-02-26T08:19:27;19.50;;;10.57;;
74626;SDS011;63132;52.268;5.192;2024-02-26T08:21:52;16.90;;;8.87;;
74626;SDS011;63132;52.268;5.192;2024-02-26T08:24:17;15.57;;;9.03;;
74626;SDS011;63132;52.268;5.192;2024-02-26T08:26:43;17.80;;;9.73;;
74626;SDS011;63132;52.268;5.192;2024-02-26T08:29:08;14.77;;;8.30;;
74626;SDS011;63132;52.268;5.192;2024-02-26T08:31:33;16.30;;;8.37;;
74626;SDS011;63132;52.268;5.192;2024-02-26T08:34:02;18.27;;;8.50;;
74626;SDS011;63132;52.268;5.192;2024-02-26T08:36:28;14.93;;;7.95;;
74626;SDS011;63132;52.268;5.192;2024-02-26T08:38:53;15.43;;;7.40;;
74626;SDS011;63132;52.268;5.192;2024-02-26T08:41:18;12.80;;;7.47;;
74626;SDS011;63132;52.268;5.192;2024-02-26T08:43:44;13.63;;;7.50;;
74626;SDS011;63132;52.268;5.192;2024-02-26T08:46:09;14.17;;;6.83;;
74626;SDS011;63132;52.268;5.192;2024-02-26T08:48:35;14.15;;;7.28;;
74626;SDS011;63132;52.268;5.192;2024-02-26T08:51:04;13.10;;;7.23;;
74626;SDS011;63132;52.268;5.192;2024-02-26T08:53:33;13.00;;;6.90;;
74626;SDS011;63132;52.268;5.192;2024-02-26T08:55:59;12.38;;;6.65;;
74626;SDS011;63132;52.268;5.192;2024-02-26T08:58:24;11.07;;;6.83;;
74626;SDS011;63132;52.268;5.192;2024-02-26T09:00:49;17.00;;;6.53;;
74626;SDS011;63132;52.268;5.192;2024-02-26T09:03:15;13.07;;;6.63;;
74626;SDS011;63132;52.268;5.192;2024-02-26T09:05:40;14.03;;;6.90;;
74626;SDS011;63132;52.268;5.192;2024-02-26T09:08:05;12.93;;;6.97;;
74626;SDS011;63132;52.268;5.192;2024-02-26T09:10:31;11.27;;;6.88;;
74626;SDS011;63132;52.268;5.192;2024-02-26T09:12:57;10.70;;;6.28;;
74626;SDS011;63132;52.268;5.192;2024-02-26T09:15:23;11.10;;;6.60;;
74626;SDS011;63132;52.268;5.192;2024-02-26T09:17:48;11.73;;;5.70;;
74626;SDS011;63132;52.268;5.192;2024-02-26T09:20:15;12.75;;;7.22;;
74626;SDS011;63132;52.268;5.192;2024-02-26T09:22:44;11.55;;;6.03;;
74626;SDS011;63132;52.268;5.192;2024-02-26T09:25:10;11.10;;;5.75;;
74626;SDS011;63132;52.268;5.192;2024-02-26T09:27:35;11.30;;;5.93;;
74626;SDS011;63132;52.268;5.192;2024-02-26T09:30:00;11.90;;;6.53;;
74626;SDS011;63132;52.268;5.192;2024-02-26T09:32:26;12.37;;;6.17;;
74626;SDS011;63132;52.268;5.192;2024-02-26T09:34:51;16.23;;;6.40;;
74626;SDS011;63132;52.268;5.192;2024-02-26T09:37:16;14.77;;;6.63;;
74626;SDS011;63132;52.268;5.192;2024-02-26T09:39:42;12.60;;;6.07;;
74626;SDS011;63132;52.268;5.192;2024-02-26T09:44:35;11.43;;;5.75;;
74626;SDS011;63132;52.268;5.192;2024-02-26T09:47:03;11.10;;;6.20;;
74626;SDS011;63132;52.268;5.192;2024-02-26T09:49:32;10.07;;;5.53;;
74626;SDS011;63132;52.268;5.192;2024-02-26T09:51:58;10.50;;;5.93;;
74626;SDS011;63132;52.268;5.192;2024-02-26T09:56:51;10.10;;;5.90;;
74626;SDS011;63132;52.268;5.192;2024-02-26T09:59:19;10.45;;;6.25;;
74626;SDS011;63132;52.268;5.192;2024-02-26T10:01:44;10.75;;;6.45;;
74626;SDS011;63132;52.268;5.192;2024-02-26T10:04:12;11.60;;;6.90;;
74626;SDS011;63132;52.268;5.192;2024-02-26T10:06:38;11.27;;;6.72;;
74626;SDS011;63132;52.268;5.192;2024-02-26T10:09:05;11.25;;;6.45;;
74626;SDS011;63132;52.268;5.192;2024-02-26T10:11:32;13.25;;;6.68;;
74626;SDS011;63132;52.268;5.192;2024-02-26T10:13:57;13.23;;;6.93;;
74626;SDS011;63132;52.268;5.192;2024-02-26T10:16:24;11.40;;;6.63;;
74626;SDS011;63132;52.268;5.192;2024-02-26T10:18:51;11.77;;;7.57;;
74626;SDS011;63132;52.268;5.192;2024-02-26T10:21:20;12.38;;;7.05;;
74626;SDS011;63132;52.268;5.192;2024-02-26T10:26:19;13.48;;;6.70;;
74626;SDS011;63132;52.268;5.192;2024-02-26T10:28:45;12.27;;;7.22;;
74626;SDS011;63132;52.268;5.192;2024-02-26T10:31:11;12.05;;;6.88;;
74626;SDS011;63132;52.268;5.192;2024-02-26T10:33:40;19.92;;;7.93;;
74626;SDS011;63132;52.268;5.192;2024-02-26T10:36:08;14.48;;;7.28;;
74626;SDS011;63132;52.268;5.192;2024-02-26T10:38:34;12.30;;;7.10;;
74626;SDS011;63132;52.268;5.192;2024-02-26T10:41:01;12.07;;;6.85;;
74626;SDS011;63132;52.268;5.192;2024-02-26T10:43:28;13.23;;;7.13;;
74626;SDS011;63132;52.268;5.192;2024-02-26T10:45:54;13.53;;;8.17;;
74626;SDS011;63132;52.268;5.192;2024-02-26T10:48:20;14.27;;;7.13;;
74626;SDS011;63132;52.268;5.192;2024-02-26T10:50:46;13.65;;;7.32;;
74626;SDS011;63132;52.268;5.192;2024-02-26T10:53:13;14.88;;;7.28;;
74626;SDS011;63132;52.268;5.192;2024-02-26T10:55:42;11.82;;;6.57;;
74626;SDS011;63132;52.268;5.192;2024-02-26T10:58:11;12.75;;;7.35;;
74626;SDS011;63132;52.268;5.192;2024-02-26T11:00:39;14.18;;;7.82;;
74626;SDS011;63132;52.268;5.192;2024-02-26T11:03:04;11.07;;;6.53;;
74626;SDS011;63132;52.268;5.192;2024-02-26T11:05:32;14.25;;;6.47;;
74626;SDS011;63132;52.268;5.192;2024-02-26T11:07:59;12.93;;;6.53;;
74626;SDS011;63132;52.268;5.192;2024-02-26T11:10:25;11.68;;;6.85;;
74626;SDS011;63132;52.268;5.192;2024-02-26T11:12:54;12.05;;;6.55;;
74626;SDS011;63132;52.268;5.192;2024-02-26T11:15:20;12.27;;;6.68;;
74626;SDS011;63132;52.268;5.192;2024-02-26T11:17:46;12.20;;;5.80;;
74626;SDS011;63132;52.268;5.192;2024-02-26T11:22:39;11.00;;;6.32;;
74626;SDS011;63132;52.268;5.192;2024-02-26T11:25:04;11.40;;;5.90;;
74626;SDS011;63132;52.268;5.192;2024-02-26T11:27:34;11.32;;;7.00;;
74626;SDS011;63132;52.268;5.192;2024-02-26T11:30:03;12.48;;;5.72;;
74626;SDS011;63132;52.268;5.192;2024-02-26T11:32:33;10.15;;;6.07;;
74626;SDS011;63132;52.268;5.192;2024-02-26T11:35:00;12.65;;;6.10;;
74626;SDS011;63132;52.268;5.192;2024-02-26T11:37:25;11.07;;;5.90;;
74626;SDS011;63132;52.268;5.192;2024-02-26T11:39:51;9.63;;;5.97;;
74626;SDS011;63132;52.268;5.192;2024-02-26T11:42:17;11.48;;;5.53;;
74626;SDS011;63132;52.268;5.192;2024-02-26T11:44:43;10.63;;;6.35;;
74626;SDS011;63132;52.268;5.192;2024-02-26T11:47:13;10.32;;;5.50;;
74626;SDS011;63132;52.268;5.192;2024-02-26T11:49:43;9.40;;;5.55;;
74626;SDS011;63132;52.268;5.192;2024-02-26T11:52:08;10.00;;;6.00;;
74626;SDS011;63132;52.268;5.192;2024-02-26T11:59:52;8.65;;;5.95;;
74626;SDS011;63132;52.268;5.192;2024-02-26T12:05:17;10.43;;;4.95;;
74626;SDS011;63132;52.268;5.192;2024-02-26T12:10:31;9.30;;;4.60;;
74626;SDS011;63132;52.268;5.192;2024-02-26T12:13:07;7.38;;;4.25;;
74626;SDS011;63132;52.268;5.192;2024-02-26T12:15:37;8.55;;;4.38;;
74626;SDS011;63132;52.268;5.192;2024-02-26T12:18:04;10.43;;;5.10;;
74626;SDS011;63132;52.268;5.192;2024-02-26T12:20:32;7.78;;;4.68;;
74626;SDS011;63132;52.268;5.192;2024-02-26T12:22:58;10.30;;;5.45;;
74626;SDS011;63132;52.268;5.192;2024-02-26T12:25:25;8.90;;;5.07;;
74626;SDS011;63132;52.268;5.192;2024-02-26T12:27:53;7.97;;;4.97;;
74626;SDS011;63132;52.268;5.192;2024-02-26T12:30:19;8.52;;;5.53;;
74626;SDS011;63132;52.268;5.192;2024-02-26T12:32:45;8.70;;;4.63;;
74626;SDS011;63132;52.268;5.192;2024-02-26T12:35:13;9.15;;;4.15;;
74626;SDS011;63132;52.268;5.192;2024-02-26T12:37:39;6.88;;;4.68;;
74626;SDS011;63132;52.268;5.192;2024-02-26T12:40:06;8.98;;;4.40;;
74626;SDS011;63132;52.268;5.192;2024-02-26T12:42:33;12.05;;;4.60;;
74626;SDS011;63132;52.268;5.192;2024-02-26T12:45:04;9.63;;;4.85;;
74626;SDS011;63132;52.268;5.192;2024-02-26T12:47:37;8.18;;;4.35;;
74626;SDS011;63132;52.268;5.192;2024-02-26T12:50:06;7.93;;;4.30;;
74626;SDS011;63132;52.268;5.192;2024-02-26T12:52:33;9.13;;;4.10;;
74626;SDS011;63132;52.268;5.192;2024-02-26T12:54:59;8.20;;;4.38;;
74626;SDS011;63132;52.268;5.192;2024-02-26T12:57:29;7.75;;;4.47;;
74626;SDS011;63132;52.268;5.192;2024-02-26T12:59:56;6.88;;;4.40;;
74626;SDS011;63132;52.268;5.192;2024-02-26T13:02:22;9.75;;;4.90;;
74626;SDS011;63132;52.268;5.192;2024-02-26T13:04:48;8.15;;;4.15;;
74626;SDS011;63132;52.268;5.192;2024-02-26T13:07:14;7.50;;;4.20;;
74626;SDS011;63132;52.268;5.192;2024-02-26T13:09:39;6.88;;;4.32;;
74626;SDS011;63132;52.268;5.192;2024-02-26T13:12:05;12.55;;;4.18;;
74626;SDS011;63132;52.268;5.192;2024-02-26T13:14:31;8.20;;;4.55;;
74626;SDS011;63132;52.268;5.192;2024-02-26T13:16:58;6.97;;;4.47;;
74626;SDS011;63132;52.268;5.192;2024-02-26T13:21:50;9.60;;;4.80;;
74626;SDS011;63132;52.268;5.192;2024-02-26T13:24:15;8.37;;;4.00;;
74626;SDS011;63132;52.268;5.192;2024-02-26T13:26:41;6.85;;;4.10;;
74626;SDS011;63132;52.268;5.192;2024-02-26T13:29:06;8.05;;;4.22;;
74626;SDS011;63132;52.268;5.192;2024-02-26T13:31:38;8.80;;;4.67;;
74626;SDS011;63132;52.268;5.192;2024-02-26T13:34:04;7.00;;;4.05;;
74626;SDS011;63132;52.268;5.192;2024-02-26T13:36:30;8.67;;;4.27;;
74626;SDS011;63132;52.268;5.192;2024-02-26T13:38:55;7.23;;;4.37;;
74626;SDS011;63132;52.268;5.192;2024-02-26T13:41:21;7.95;;;4.07;;
74626;SDS011;63132;52.268;5.192;2024-02-26T13:43:47;6.38;;;3.85;;
74626;SDS011;63132;52.268;5.192;2024-02-26T13:46:13;7.03;;;3.80;;
74626;SDS011;63132;52.268;5.192;2024-02-26T13:48:40;8.75;;;4.28;;
74626;SDS011;63132;52.268;5.192;2024-02-26T13:51:06;6.47;;;3.88;;
74626;SDS011;63132;52.268;5.192;2024-02-26T13:53:31;5.70;;;3.63;;
74626;SDS011;63132;52.268;5.192;2024-02-26T13:55:56;7.80;;;3.90;;
74626;SDS011;63132;52.268;5.192;2024-02-26T13:58:23;8.88;;;3.53;;
74626;SDS011;63132;52.268;5.192;2024-02-26T14:00:49;6.20;;;3.40;;
74626;SDS011;63132;52.268;5.192;2024-02-26T14:03:15;10.07;;;3.88;;
74626;SDS011;63132;52.268;5.192;2024-02-26T14:05:41;5.38;;;3.17;;
74626;SDS011;63132;52.268;5.192;2024-02-26T14:08:06;8.18;;;3.80;;
74626;SDS011;63132;52.268;5.192;2024-02-26T14:10:31;5.73;;;2.83;;
74626;SDS011;63132;52.268;5.192;2024-02-26T14:12:57;5.63;;;3.23;;
74626;SDS011;63132;52.268;5.192;2024-02-26T14:15:24;5.80;;;3.63;;
74626;SDS011;63132;52.268;5.192;2024-02-26T14:17:49;7.00;;;3.75;;
74626;SDS011;63132;52.268;5.192;2024-02-26T14:20:21;7.55;;;3.15;;
74626;SDS011;63132;52.268;5.192;2024-02-26T14:22:46;9.57;;;3.00;;
74626;SDS011;63132;52.268;5.192;2024-02-26T14:25:12;14.85;;;4.38;;
74626;SDS011;63132;52.268;5.192;2024-02-26T14:27:38;5.50;;;3.10;;
74626;SDS011;63132;52.268;5.192;2024-02-26T14:30:04;5.83;;;2.90;;
74626;SDS011;63132;52.268;5.192;2024-02-26T14:32:29;6.65;;;2.92;;
74626;SDS011;63132;52.268;5.192;2024-02-26T14:34:59;7.95;;;3.40;;
74626;SDS011;63132;52.268;5.192;2024-02-26T14:37:25;5.13;;;2.85;;
74626;SDS011;63132;52.268;5.192;2024-02-26T14:39:50;7.83;;;3.17;;
74626;SDS011;63132;52.268;5.192;2024-02-26T14:42:17;7.68;;;3.60;;
74626;SDS011;63132;52.268;5.192;2024-02-26T14:44:43;7.97;;;3.72;;
74626;SDS011;63132;52.268;5.192;2024-02-26T14:47:08;5.60;;;3.30;;
74626;SDS011;63132;52.268;5.192;2024-02-26T14:49:34;6.33;;;3.27;;
74626;SDS011;63132;52.268;5.192;2024-02-26T14:51:59;6.50;;;3.70;;